Time;durP1;ratioP1;P1;durP2;ratioP2;P2;SDS_P1;SDS_P2;PMS_P1;PMS_P2;Temp;Humidity;BMP_temperature;BMP_pressure;BME280_temperature;BME280_humidity;BME280_pressure;Samples;Min_cycle;Max_cycle;Signal;HPM_P1;HPM_P2
2023/07/17 00:13:26;;;;;;;4.55;2.88;;;;;;;19.42;62.20;96910.34;6244708;22;20031;-78
2023/07/17 00:15:54;;;;;;;7.50;2.60;;;;;;;19.44;62.78;96913.53;6252183;23;20023;-79
2023/07/17 00:18:22;;;;;;;4.97;2.55;;;;;;;19.48;62.41;96909.38;6270652;23;20020;-76
2023/07/17 00:20:50;;;;;;;4.80;2.47;;;;;;;19.49;62.15;96913.66;6271545;23;20031;-78
2023/07/17 00:23:17;;;;;;;5.32;2.80;;;;;;;19.46;62.33;96909.66;6264925;22;20096;-78
2023/07/17 00:25:45;;;;;;;4.90;2.88;;;;;;;19.43;62.23;96911.94;6249184;22;20338;-75
2023/07/17 00:28:12;;;;;;;4.35;2.70;;;;;;;19.44;62.31;96914.34;6252329;23;20028;-77
2023/07/17 00:30:42;;;;;;;4.70;2.67;;;;;;;19.45;61.90;96915.94;6250882;23;20078;-77
2023/07/17 00:33:10;;;;;;;4.55;2.75;;;;;;;19.43;61.52;96904.00;6251858;23;20051;-79
2023/07/17 00:35:38;;;;;;;4.18;2.88;;;;;;;19.40;61.39;96912.41;6253483;23;20052;-76
2023/07/17 00:38:05;;;;;;;4.70;2.40;;;;;;;19.40;63.09;96907.91;6251961;23;20077;-77
2023/07/17 00:40:34;;;;;;;3.75;2.47;;;;;;;19.41;61.63;96900.78;6251962;23;20026;-76
2023/07/17 00:43:02;;;;;;;5.05;2.33;;;;;;;19.48;63.50;96896.16;6253351;23;20405;-77
2023/07/17 00:45:32;;;;;;;4.13;2.50;;;;;;;19.64;66.49;96898.13;6252339;23;20024;-79
2023/07/17 00:48:03;;;;;;;6.22;2.50;;;;;;;19.73;62.29;96899.41;6251953;23;20353;-76
2023/07/17 00:50:30;;;;;;;4.57;2.33;;;;;;;19.74;63.14;96901.03;6250838;23;20024;-77
2023/07/17 00:52:58;;;;;;;6.63;3.00;;;;;;;19.79;63.10;96899.50;6252140;23;20108;-78
2023/07/17 00:55:26;;;;;;;4.80;2.63;;;;;;;19.87;66.63;96894.66;6251178;23;20024;-77
2023/07/17 00:57:54;;;;;;;10.43;2.88;;;;;;;19.91;62.79;96887.06;6251076;23;20402;-76
2023/07/17 01:00:24;;;;;;;3.78;2.72;;;;;;;19.81;61.90;96897.41;6251422;23;20024;-78
2023/07/17 01:02:52;;;;;;;6.20;2.97;;;;;;;19.70;62.03;96904.34;6250786;23;20020;-76
2023/07/17 01:05:21;;;;;;;4.20;2.47;;;;;;;19.72;63.89;96908.38;6250708;23;20100;-78
2023/07/17 01:07:49;;;;;;;8.18;3.00;;;;;;;19.79;62.33;96902.13;6250970;23;20020;-77
2023/07/17 01:10:17;;;;;;;4.22;2.50;;;;;;;19.78;61.99;96901.34;6251212;23;20075;-78
2023/07/17 01:12:44;;;;;;;8.25;3.10;;;;;;;19.70;61.62;96897.22;6250248;23;20051;-77
2023/07/17 01:15:12;;;;;;;5.38;3.08;;;;;;;19.62;61.87;96897.53;6250498;23;20031;-78
2023/07/17 01:17:40;;;;;;;6.28;2.75;;;;;;;19.55;62.25;96910.09;6250170;23;20058;-76
2023/07/17 01:20:10;;;;;;;3.15;2.00;;;;;;;19.57;65.26;96915.97;6250109;23;20469;-75
2023/07/17 01:22:49;;;;;;;5.80;2.72;;;;;;;19.65;66.95;96920.88;6249733;23;20527;-78
2023/07/17 01:25:17;;;;;;;4.55;2.90;;;;;;;19.77;67.38;96918.28;6249625;23;20016;-79
2023/07/17 01:27:45;;;;;;;6.47;2.78;;;;;;;19.79;63.48;96924.16;6249515;23;20449;-78
2023/07/17 01:30:13;;;;;;;5.85;2.50;;;;;;;19.79;63.39;96920.66;6249198;23;20470;-78
2023/07/17 01:32:40;;;;;;;6.05;2.42;;;;;;;19.75;62.88;96913.22;6249104;23;20074;-76
2023/07/17 01:35:09;;;;;;;3.13;2.47;;;;;;;19.82;65.35;96922.88;6250262;23;20415;-78
2023/07/17 01:37:37;;;;;;;4.90;2.47;;;;;;;19.93;66.26;96920.19;6249848;23;20093;-78
2023/07/17 01:40:09;;;;;;;3.88;2.72;;;;;;;20.02;67.85;96930.44;6250767;23;20078;-76
2023/07/17 01:42:37;;;;;;;2.83;2.42;;;;;;;20.04;64.64;96921.22;6250844;23;20098;-79
2023/07/17 01:45:05;;;;;;;4.18;2.25;;;;;;;20.03;64.36;96921.44;6250584;23;20050;-78
2023/07/17 01:47:33;;;;;;;4.00;2.42;;;;;;;19.95;62.83;96925.25;6249697;23;20077;-76
2023/07/17 01:50:01;;;;;;;5.63;2.75;;;;;;;19.95;63.49;96919.97;6249392;23;20027;-77
2023/07/17 01:52:29;;;;;;;3.53;2.10;;;;;;;19.88;62.07;96904.22;6249877;23;20020;-76
2023/07/17 01:54:57;;;;;;;5.82;2.55;;;;;;;19.81;61.92;96908.00;6250033;23;20530;-78
2023/07/17 01:57:25;;;;;;;5.93;2.60;;;;;;;19.69;61.82;96911.47;6250109;23;20384;-78
2023/07/17 01:59:53;;;;;;;3.92;2.78;;;;;;;19.64;62.20;96914.00;6250710;23;20024;-77
2023/07/17 02:02:20;;;;;;;3.20;2.58;;;;;;;19.66;65.69;96916.41;6259209;23;20024;-79
2023/07/17 02:04:48;;;;;;;6.45;2.58;;;;;;;19.77;66.51;96918.28;6264255;23;20107;-79
2023/07/17 02:07:16;;;;;;;4.82;2.75;;;;;;;19.83;65.75;96912.06;6263050;23;20095;-77
2023/07/17 02:09:43;;;;;;;4.10;2.38;;;;;;;19.88;66.50;96908.72;6256442;23;20024;-79
2023/07/17 02:12:11;;;;;;;5.78;2.58;;;;;;;19.89;65.25;96907.66;6255451;23;20086;-77
2023/07/17 02:14:40;;;;;;;4.80;2.88;;;;;;;19.84;62.83;96913.66;6253328;23;20024;-77
2023/07/17 02:17:07;;;;;;;3.15;2.15;;;;;;;19.80;65.03;96911.72;6251540;23;20070;-80
2023/07/17 02:19:35;;;;;;;3.42;2.30;;;;;;;19.86;65.64;96916.06;6249540;23;20024;-78
2023/07/17 02:22:02;;;;;;;4.00;2.72;;;;;;;19.95;67.43;96920.75;6250742;23;20024;-77
2023/07/17 02:24:30;;;;;;;5.65;2.78;;;;;;;19.98;65.58;96919.50;6250865;23;20028;-77
2023/07/17 02:26:58;;;;;;;3.30;2.03;;;;;;;20.06;67.54;96921.78;6250370;23;20051;-77
2023/07/17 02:29:26;;;;;;;5.72;2.83;;;;;;;20.09;66.68;96909.91;6250578;23;20030;-77
2023/07/17 02:31:55;;;;;;;2.38;2.17;;;;;;;20.13;66.06;96911.06;6251148;23;20024;-78
2023/07/17 02:34:23;;;;;;;5.47;2.45;;;;;;;20.10;62.59;96922.91;6249999;23;20044;-78
2023/07/17 02:36:50;;;;;;;2.88;2.13;;;;;;;20.11;65.31;96932.47;6251138;23;20027;-79
2023/07/17 02:39:18;;;;;;;3.55;2.40;;;;;;;20.16;67.15;96931.78;6250268;23;20036;-77
2023/07/17 02:41:45;;;;;;;5.10;2.75;;;;;;;20.10;62.70;96930.88;6250107;23;20078;-77
2023/07/17 02:44:13;;;;;;;2.95;2.20;;;;;;;19.95;61.94;96933.19;6251977;23;20074;-77
2023/07/17 02:46:41;;;;;;;4.53;2.42;;;;;;;19.82;61.81;96930.81;6249529;23;20023;-77
2023/07/17 02:49:11;;;;;;;5.95;2.65;;;;;;;19.71;61.64;96920.00;6251169;23;20027;-77
2023/07/17 02:51:39;;;;;;;5.90;2.83;;;;;;;19.60;61.75;96928.72;6250617;23;20020;-77
2023/07/17 02:54:07;;;;;;;4.05;2.70;;;;;;;19.50;61.95;96934.59;6251291;23;20074;-76
2023/07/17 02:56:34;;;;;;;5.13;2.53;;;;;;;19.42;62.13;96952.66;6250955;23;20047;-77
2023/07/17 02:59:03;;;;;;;4.60;1.98;;;;;;;19.41;66.62;96972.19;6250830;23;20015;-77
2023/07/17 03:01:31;;;;;;;3.50;2.55;;;;;;;19.48;66.07;96991.41;6250733;23;20028;-78
2023/07/17 03:03:59;;;;;;;4.15;2.70;;;;;;;19.54;64.92;96993.16;6250901;23;20411;-75
2023/07/17 03:06:28;;;;;;;3.88;2.35;;;;;;;19.55;63.07;96960.38;6251017;23;20059;-77
2023/07/17 03:08:55;;;;;;;6.85;2.50;;;;;;;19.52;62.60;96966.09;6251220;23;20021;-76
2023/07/17 03:11:23;;;;;;;7.82;3.22;;;;;;;19.51;62.58;96957.38;6251435;23;20362;-76
2023/07/17 03:13:50;;;;;;;7.10;3.20;;;;;;;19.49;62.76;96963.94;6251540;23;20020;-78
2023/07/17 03:16:18;;;;;;;3.85;2.42;;;;;;;19.53;66.47;96975.66;6252580;23;20400;-79
2023/07/17 03:18:47;;;;;;;3.22;2.63;;;;;;;19.65;69.27;96979.09;6251367;23;20091;-78
2023/07/17 03:21:15;;;;;;;3.75;2.45;;;;;;;19.72;65.30;96974.56;6250214;23;20066;-78
2023/07/17 03:23:44;;;;;;;4.97;2.90;;;;;;;19.71;63.74;96965.00;6251326;23;20055;-76
2023/07/17 03:26:12;;;;;;;6.90;2.60;;;;;;;19.65;63.37;96960.59;6249803;23;20465;-78
2023/07/17 03:28:39;;;;;;;5.78;3.03;;;;;;;19.58;63.83;96957.25;6251681;23;20048;-77
2023/07/17 03:31:08;;;;;;;5.40;2.63;;;;;;;19.51;63.87;96956.56;6249815;23;20058;-76
2023/07/17 03:33:39;;;;;;;4.90;2.85;;;;;;;19.42;64.43;96958.75;6249156;23;20552;-76
2023/07/17 03:36:07;;;;;;;3.45;2.53;;;;;;;19.40;65.65;96955.53;6250128;23;20029;-77
2023/07/17 03:38:35;;;;;;;3.13;2.38;;;;;;;19.48;68.34;96957.00;6249415;23;20074;-77
2023/07/17 03:41:04;;;;;;;4.75;2.70;;;;;;;19.53;66.14;96960.59;6249911;23;20474;-78
2023/07/17 03:43:31;;;;;;;3.72;2.55;;;;;;;19.58;68.13;96972.34;6249181;23;20024;-76
2023/07/17 03:45:59;;;;;;;6.40;3.20;;;;;;;19.62;66.34;96973.50;6249107;23;20156;-74
2023/07/17 03:48:27;;;;;;;6.13;3.15;;;;;;;19.66;66.63;96974.66;6249323;23;20457;-78
2023/07/17 03:50:54;;;;;;;7.30;2.90;;;;;;;19.64;65.72;96980.16;6248595;23;20470;-79
2023/07/17 03:53:22;;;;;;;3.15;2.45;;;;;;;19.71;68.79;96988.00;6249103;23;20024;-78
2023/07/17 03:55:49;;;;;;;4.35;2.38;;;;;;;19.76;67.16;97002.16;6249139;23;20034;-77
2023/07/17 03:58:18;;;;;;;4.40;2.72;;;;;;;19.79;65.85;97005.38;6251020;23;20023;-76
2023/07/17 04:00:46;;;;;;;3.75;2.67;;;;;;;19.72;65.49;96997.56;6250105;23;20020;-77
2023/07/17 04:03:14;;;;;;;4.95;2.70;;;;;;;19.68;65.24;97005.13;6250138;23;20390;-76
2023/07/17 04:05:43;;;;;;;4.90;2.60;;;;;;;19.70;67.12;97011.03;6250160;23;20071;-76
2023/07/17 04:08:11;;;;;;;6.65;2.90;;;;;;;19.74;67.63;97004.25;6249750;23;20027;-77
2023/07/17 04:10:38;;;;;;;3.80;2.70;;;;;;;19.80;67.30;97010.44;6251232;23;20024;-77
2023/07/17 04:13:06;;;;;;;4.57;2.80;;;;;;;19.84;67.81;97018.75;6250225;23;20074;-77
2023/07/17 04:15:36;;;;;;;5.65;3.08;;;;;;;19.82;65.38;97016.31;6249492;23;20024;-76
2023/07/17 04:18:04;;;;;;;4.88;2.42;;;;;;;19.68;65.22;97010.44;6249204;23;20481;-75
2023/07/17 04:20:32;;;;;;;7.60;2.78;;;;;;;19.52;65.55;97003.94;6249485;23;20016;-76
2023/07/17 04:23:00;;;;;;;6.03;3.38;;;;;;;19.40;65.63;97013.72;6249830;23;20505;-78
2023/07/17 04:25:27;;;;;;;5.35;3.38;;;;;;;19.28;66.12;97004.97;6249970;23;20020;-77
2023/07/17 04:27:56;;;;;;;4.45;2.67;;;;;;;19.21;66.41;97015.63;6250702;23;20094;-78
2023/07/17 04:30:24;;;;;;;3.60;2.88;;;;;;;19.19;66.34;97017.69;6251813;23;20078;-77
2023/07/17 04:32:54;;;;;;;6.03;2.70;;;;;;;19.17;66.51;97027.69;6251224;23;20086;-78
2023/07/17 04:35:22;;;;;;;5.97;3.05;;;;;;;19.16;66.40;97018.16;6251214;23;20024;-77
2023/07/17 04:37:50;;;;;;;5.63;3.05;;;;;;;19.15;66.67;97024.47;6250798;23;20115;-78
2023/07/17 04:40:18;;;;;;;6.57;3.13;;;;;;;19.13;66.43;97026.53;6250400;23;20066;-78
2023/07/17 04:42:45;;;;;;;7.85;3.30;;;;;;;19.10;66.62;97024.34;6250149;23;20031;-78
2023/07/17 04:45:13;;;;;;;4.72;3.25;;;;;;;19.06;66.64;97025.81;6249664;23;20070;-76
2023/07/17 04:47:41;;;;;;;8.35;2.78;;;;;;;19.04;66.65;97030.53;6249480;23;20024;-78
2023/07/17 04:50:11;;;;;;;6.65;3.47;;;;;;;19.03;66.81;97029.72;6250703;23;20024;-77
2023/07/17 04:52:38;;;;;;;6.38;2.75;;;;;;;19.04;66.89;97025.25;6250968;23;20019;-77
2023/07/17 04:55:07;;;;;;;4.93;2.85;;;;;;;19.04;66.97;97025.25;6251657;23;20021;-76
2023/07/17 04:57:35;;;;;;;5.35;3.08;;;;;;;19.04;67.45;97027.88;6250934;23;20078;-77
2023/07/17 05:00:03;;;;;;;6.50;3.30;;;;;;;19.07;67.38;97032.75;6251460;23;20024;-75
2023/07/17 05:02:30;;;;;;;6.22;2.97;;;;;;;19.10;68.73;97027.00;6252584;23;20025;-78
2023/07/17 05:04:58;;;;;;;5.28;2.78;;;;;;;19.16;67.34;97038.53;6252887;23;20024;-78
2023/07/17 05:07:28;;;;;;;6.40;3.13;;;;;;;19.18;67.23;97034.63;6251491;23;20024;-78
2023/07/17 05:09:55;;;;;;;3.47;2.55;;;;;;;19.21;67.08;97031.50;6250474;23;20016;-77
2023/07/17 05:12:23;;;;;;;7.25;2.97;;;;;;;19.27;67.02;97040.38;6258201;23;20024;-91
2023/07/17 05:14:54;;;;;;;3.22;2.65;;;;;;;19.29;66.93;97039.13;6259213;23;20396;-86
2023/07/17 05:17:25;;;;;;;4.60;2.83;;;;;;;19.37;67.05;97039.81;6257051;23;20358;-86
2023/07/17 05:19:53;;;;;;;5.88;2.92;;;;;;;19.42;66.71;97045.25;6255744;23;20030;-86
2023/07/17 05:22:21;;;;;;;6.28;3.20;;;;;;;19.42;66.40;97038.13;6257935;23;20024;-87
2023/07/17 05:24:50;;;;;;;5.93;2.58;;;;;;;19.46;66.55;97044.56;6256127;23;20543;-86
2023/07/17 05:27:18;;;;;;;5.38;3.42;;;;;;;19.52;66.51;97042.84;6256939;23;20016;-91
2023/07/17 05:29:47;;;;;;;5.78;3.28;;;;;;;19.66;69.50;97049.53;6256395;23;20092;-86
2023/07/17 05:32:16;;;;;;;4.32;3.05;;;;;;;19.80;68.22;97052.00;6257645;23;20102;-87
2023/07/17 05:34:44;;;;;;;4.68;3.22;;;;;;;19.93;69.01;97065.00;6257738;23;20024;-89
2023/07/17 05:37:15;;;;;;;8.30;3.80;;;;;;;19.99;66.01;97058.81;6256369;23;20027;-83
2023/07/17 05:39:44;;;;;;;6.47;4.25;;;;;;;20.04;66.32;97058.91;6256556;23;20349;-86
2023/07/17 05:42:15;;;;;;;9.05;5.85;;;;;;;20.11;64.88;97056.13;6255429;23;20076;-88
2023/07/17 05:44:43;;;;;;;7.78;5.22;;;;;;;20.09;64.68;97045.78;6255536;23;20069;-87
2023/07/17 05:47:12;;;;;;;12.20;6.47;;;;;;;20.07;64.74;97045.22;6255268;23;20454;-84
2023/07/17 05:49:40;;;;;;;9.18;5.97;;;;;;;20.10;64.82;97043.94;6254953;23;20023;-83
2023/07/17 05:52:11;;;;;;;12.00;6.00;;;;;;;20.11;64.76;97062.22;6260321;23;20024;-89
2023/07/17 05:54:39;;;;;;;8.45;5.57;;;;;;;20.14;67.18;97055.69;6260134;23;20027;-88
2023/07/17 05:57:08;;;;;;;6.50;4.78;;;;;;;20.19;65.29;97058.44;6259592;23;20070;-87
2023/07/17 05:59:37;;;;;;;9.98;5.50;;;;;;;20.23;64.86;97061.44;6257311;23;20019;-88
2023/07/17 06:02:07;;;;;;;7.20;4.45;;;;;;;20.30;66.83;97060.28;6260110;23;20031;-85
2023/07/17 06:04:36;;;;;;;8.45;4.93;;;;;;;20.37;65.50;97066.25;6259106;23;20028;-85
2023/07/17 06:07:05;;;;;;;6.80;4.70;;;;;;;20.39;64.48;97060.72;6258312;23;20023;-85
2023/07/17 06:09:34;;;;;;;6.82;4.80;;;;;;;20.42;63.65;97073.50;6257442;23;20091;-88
2023/07/17 06:12:03;;;;;;;8.05;4.20;;;;;;;20.43;63.61;97069.81;6257049;23;20433;-85
2023/07/17 06:14:31;;;;;;;7.47;4.70;;;;;;;20.44;62.57;97066.13;6257518;23;20016;-85
2023/07/17 06:17:01;;;;;;;7.22;4.07;;;;;;;20.48;62.44;97067.25;6257082;23;20484;-85
2023/07/17 06:19:31;;;;;;;6.57;3.83;;;;;;;20.57;61.81;97065.91;6256451;23;20012;-85
2023/07/17 06:21:59;;;;;;;4.80;3.00;;;;;;;20.66;62.22;97068.19;6255831;23;20247;-82
2023/07/17 06:24:28;;;;;;;8.57;2.75;;;;;;;20.73;60.56;97066.22;6256864;23;20431;-86
2023/07/17 06:26:55;;;;;;;5.15;2.47;;;;;;;20.81;64.03;97068.47;6254096;23;20350;-85
2023/07/17 06:29:24;;;;;;;3.22;2.22;;;;;;;20.93;64.71;97063.94;6252831;23;20018;-86
2023/07/17 06:31:52;;;;;;;3.17;2.42;;;;;;;21.04;62.98;97074.75;6253591;23;20052;-89
2023/07/17 06:34:22;;;;;;;7.30;2.40;;;;;;;21.07;60.30;97074.28;6252331;23;20024;-86
2023/07/17 06:36:51;;;;;;;4.78;2.63;;;;;;;21.14;60.68;97075.75;6253457;23;20043;-86
2023/07/17 06:39:19;;;;;;;6.53;2.75;;;;;;;21.20;58.76;97071.34;6253137;23;20016;-86
2023/07/17 06:41:47;;;;;;;3.33;2.22;;;;;;;21.22;58.94;97082.50;6252613;23;20478;-84
2023/07/17 06:44:15;;;;;;;5.97;2.50;;;;;;;21.26;57.54;97086.31;6253255;23;20011;-86
2023/07/17 06:46:43;;;;;;;6.82;2.92;;;;;;;21.33;57.36;97079.00;6252707;23;20024;-83
2023/07/17 06:49:12;;;;;;;4.15;2.45;;;;;;;21.43;59.31;97082.91;6253637;23;20088;-87
2023/07/17 06:51:41;;;;;;;4.70;2.55;;;;;;;21.47;58.90;97089.34;6253108;23;20068;-85
2023/07/17 06:54:09;;;;;;;4.63;2.70;;;;;;;21.47;56.21;97090.16;6253602;23;20524;-87
2023/07/17 06:56:37;;;;;;;9.23;3.05;;;;;;;21.53;58.50;97091.03;6252597;23;20020;-89
2023/07/17 06:59:05;;;;;;;6.30;2.60;;;;;;;21.55;55.73;97092.41;6252459;23;20016;-88
2023/07/17 07:01:33;;;;;;;3.85;2.25;;;;;;;21.60;57.03;97099.66;6251755;23;20040;-83
2023/07/17 07:04:01;;;;;;;5.28;2.55;;;;;;;21.68;57.56;97091.28;6251890;23;20012;-88
2023/07/17 07:06:30;;;;;;;3.75;2.33;;;;;;;21.76;56.85;97095.41;6251855;23;20032;-88
2023/07/17 07:08:59;;;;;;;4.60;2.10;;;;;;;21.84;56.69;97091.53;6252220;23;20031;-82
2023/07/17 07:11:27;;;;;;;6.38;2.35;;;;;;;21.91;56.50;97094.84;6251358;23;20016;-85
2023/07/17 07:13:55;;;;;;;8.05;2.53;;;;;;;21.95;54.85;97094.13;6251835;23;20461;-90
2023/07/17 07:16:23;;;;;;;3.30;2.53;;;;;;;21.98;53.90;97093.63;6252302;23;20028;-88
2023/07/17 07:18:50;;;;;;;5.82;2.58;;;;;;;21.97;53.26;97097.34;6251949;23;20470;-83
2023/07/17 07:21:18;;;;;;;7.10;2.30;;;;;;;21.98;53.95;97095.50;6251509;23;20019;-85
2023/07/17 07:23:46;;;;;;;5.78;2.65;;;;;;;22.02;53.25;97100.06;6252306;23;20532;-88
2023/07/17 07:26:15;;;;;;;4.22;2.53;;;;;;;22.10;54.61;97098.06;6252658;23;20094;-87
2023/07/17 07:28:43;;;;;;;7.20;2.72;;;;;;;22.15;53.59;97098.94;6252237;23;20021;-82
2023/07/17 07:31:11;;;;;;;4.88;2.90;;;;;;;22.20;53.05;97087.56;6256799;23;20012;-86
2023/07/17 07:33:39;;;;;;;5.43;2.55;;;;;;;22.30;53.74;97092.25;6261571;23;20034;-88
2023/07/17 07:36:07;;;;;;;6.55;2.63;;;;;;;22.39;53.67;97094.25;6261826;23;20063;-84
2023/07/17 07:38:35;;;;;;;4.78;2.50;;;;;;;22.49;53.44;97098.09;6254510;23;20547;-82
2023/07/17 07:41:02;;;;;;;6.57;2.90;;;;;;;22.57;52.15;97093.16;6257316;23;20020;-84
2023/07/17 07:43:31;;;;;;;5.05;3.13;;;;;;;22.61;51.21;97096.16;6255375;23;20020;-81
2023/07/17 07:45:59;;;;;;;7.28;2.80;;;;;;;22.68;53.29;97101.28;6254010;23;20079;-82
2023/07/17 07:48:27;;;;;;;6.75;2.10;;;;;;;22.74;51.09;97101.09;6256132;23;20022;-87
2023/07/17 07:50:55;;;;;;;3.58;2.30;;;;;;;22.81;50.26;97098.25;6255164;23;20074;-85
2023/07/17 07:53:22;;;;;;;6.68;2.40;;;;;;;22.87;51.38;97099.91;6254426;23;20086;-85
2023/07/17 07:55:50;;;;;;;6.80;2.85;;;;;;;22.95;51.07;97098.66;6254061;23;20028;-83
2023/07/17 07:58:18;;;;;;;5.72;2.50;;;;;;;23.03;52.82;97100.91;6252819;23;20020;-83
2023/07/17 08:00:47;;;;;;;6.07;2.45;;;;;;;23.11;50.76;97102.31;6253027;23;20074;-81
2023/07/17 08:03:15;;;;;;;5.43;2.80;;;;;;;23.17;51.03;97106.66;6253303;23;20016;-83
2023/07/17 08:05:43;;;;;;;3.80;2.28;;;;;;;23.28;51.90;97104.91;6253421;23;20043;-83
2023/07/17 08:08:11;;;;;;;5.50;2.80;;;;;;;23.36;49.81;97102.59;6252584;23;20462;-84
2023/07/17 08:10:40;;;;;;;4.38;3.00;;;;;;;23.45;50.76;97109.06;6252657;23;20023;-82
2023/07/17 08:13:09;;;;;;;5.10;2.80;;;;;;;23.55;51.57;97107.53;6252168;23;20016;-83
2023/07/17 08:15:37;;;;;;;3.17;2.40;;;;;;;23.62;48.94;97102.84;6252769;23;20035;-87
2023/07/17 08:18:07;;;;;;;5.50;3.13;;;;;;;23.69;48.20;97102.63;6252789;23;20074;-83
2023/07/17 08:20:35;;;;;;;4.45;2.95;;;;;;;23.73;48.32;97104.53;6252026;23;20102;-85
2023/07/17 08:23:04;;;;;;;3.53;2.70;;;;;;;23.81;48.51;97108.59;6252101;23;20020;-83
2023/07/17 08:25:36;;;;;;;7.07;3.08;;;;;;;23.85;47.61;97102.53;6252827;23;20473;-83
2023/07/17 08:28:05;;;;;;;6.35;3.05;;;;;;;23.93;47.56;97105.78;6252905;23;20099;-84
2023/07/17 08:30:34;;;;;;;4.53;2.85;;;;;;;24.00;48.92;97103.69;6254960;23;20020;-82
2023/07/17 08:33:01;;;;;;;7.05;2.70;;;;;;;24.08;47.30;97102.44;6255455;23;20039;-85
2023/07/17 08:35:31;;;;;;;5.97;2.72;;;;;;;24.09;46.68;97096.03;6259101;23;20085;-88
2023/07/17 08:38:00;;;;;;;4.72;2.60;;;;;;;24.12;46.54;97101.66;6259658;23;20323;-85
2023/07/17 08:40:28;;;;;;;4.20;2.75;;;;;;;24.20;48.06;97095.81;6258236;23;20016;-81
2023/07/17 08:42:59;;;;;;;4.75;2.65;;;;;;;24.31;46.57;97098.56;6258859;23;20023;-85
2023/07/17 08:45:37;;;;;;;8.45;3.25;;;;;;;24.38;45.63;97104.47;6259340;23;20024;-87
2023/07/17 08:48:09;;;;;;;3.88;2.85;;;;;;;24.43;48.37;97112.50;6258164;23;20068;-87
2023/07/17 08:50:42;;;;;;;;;;;;;;;24.47;47.78;97108.28;6258164;23;20020;-85
2023/07/17 08:53:11;;;;;;;4.38;2.58;;;;;;;24.57;47.82;97102.22;6257884;23;19915;-84
2023/07/17 08:55:41;;;;;;;6.35;3.05;;;;;;;24.65;46.45;97105.19;6257292;23;20016;-89
2023/07/17 08:58:12;;;;;;;3.92;2.47;;;;;;;24.71;44.78;97100.69;6257402;23;20027;-85
2023/07/17 09:00:42;;;;;;;5.05;2.90;;;;;;;24.76;45.13;97099.91;6257572;23;20331;-88
2023/07/17 09:03:14;;;;;;;7.10;2.70;;;;;;;24.82;45.00;97098.88;6258891;23;20020;-86
2023/07/17 09:05:49;;;;;;;4.03;2.70;;;;;;;24.92;44.65;97098.09;6258473;23;20016;-87
2023/07/17 09:08:17;;;;;;;4.05;2.78;;;;;;;25.03;44.78;97102.38;6258135;23;20020;-86
2023/07/17 09:10:46;;;;;;;9.02;3.05;;;;;;;25.13;44.31;97105.09;6257609;23;20082;-87
2023/07/17 09:13:20;;;;;;;7.95;2.90;;;;;;;25.23;43.68;97096.34;6258229;23;20026;-87
2023/07/17 09:15:48;;;;;;;5.70;2.72;;;;;;;25.27;43.70;97100.09;6258202;23;20016;-86
2023/07/17 09:18:26;;;;;;;6.25;3.22;;;;;;;25.24;42.70;97108.63;6258703;23;20326;-88
2023/07/17 09:21:03;;;;;;;7.65;3.00;;;;;;;25.15;43.33;97108.31;6259083;23;20020;-86
2023/07/17 09:23:38;;;;;;;6.15;3.03;;;;;;;25.12;43.23;97108.03;6258257;23;20020;-84
2023/07/17 09:26:06;;;;;;;6.95;3.22;;;;;;;25.16;43.98;97106.44;6258456;23;20028;-86
2023/07/17 09:28:38;;;;;;;4.60;2.88;;;;;;;25.22;42.11;97098.22;6259581;23;20519;-85
2023/07/17 09:31:06;;;;;;;5.13;2.78;;;;;;;25.32;42.81;97108.13;6258562;23;20400;-85
2023/07/17 09:33:38;;;;;;;6.90;3.05;;;;;;;25.38;42.10;97107.03;6258524;23;20032;-84
2023/07/17 09:36:12;;;;;;;4.00;2.85;;;;;;;25.38;40.60;97108.91;6257643;23;20099;-85
2023/07/17 09:38:41;;;;;;;4.07;2.88;;;;;;;25.44;42.58;97106.00;6257024;23;20453;-83
2023/07/17 09:41:21;;;;;;;6.03;3.20;;;;;;;25.56;40.86;97103.09;6259967;23;20072;-87
2023/07/17 09:44:00;;;;;;;4.40;2.95;;;;;;;25.61;40.77;97105.75;6261261;23;20040;-88
2023/07/17 09:46:30;;;;;;;3.85;2.78;;;;;;;25.68;42.04;97100.16;6261071;23;20035;-86
2023/07/17 09:48:59;;;;;;;7.80;3.17;;;;;;;25.72;40.36;97114.56;6260622;23;20041;-87
2023/07/17 09:51:30;;;;;;;2.70;2.50;;;;;;;25.66;39.86;97113.75;6259510;23;20016;-88
2023/07/17 09:54:00;;;;;;;4.68;3.10;;;;;;;25.57;40.31;97114.56;6259948;23;20023;-87
2023/07/17 09:56:30;;;;;;;4.30;2.88;;;;;;;25.48;41.14;97112.41;6257925;23;20020;-88
2023/07/17 09:59:09;;;;;;;6.88;2.60;;;;;;;25.44;39.83;97115.88;6259365;23;20046;-88
2023/07/17 10:01:40;;;;;;;8.73;3.17;;;;;;;25.42;40.08;97110.78;6256903;23;20095;-85
2023/07/17 10:04:10;;;;;;;6.53;3.53;;;;;;;25.47;40.02;97104.66;6257221;23;20024;-87
2023/07/17 10:06:43;;;;;;;3.88;2.85;;;;;;;25.52;39.64;97099.34;6256063;23;20047;-87
2023/07/17 10:09:14;;;;;;;6.78;3.17;;;;;;;25.58;39.37;97094.78;6257457;23;20481;-85
2023/07/17 10:11:44;;;;;;;6.38;3.05;;;;;;;25.56;38.99;97103.09;6256409;23;20074;-87
2023/07/17 10:14:15;;;;;;;4.32;3.08;;;;;;;25.54;39.72;97099.06;6255685;23;20199;-88
2023/07/17 10:16:44;;;;;;;;;;;;;;;25.56;39.77;97107.59;6256551;23;20020;-86
2023/07/17 10:19:14;;;;;;;4.65;3.28;;;;;;;25.57;39.77;97099.34;6255399;23;20342;-88
2023/07/17 10:21:57;;;;;;;4.68;3.05;;;;;;;25.56;39.48;97092.41;6255232;23;20072;-88
2023/07/17 10:24:30;;;;;;;4.03;2.65;;;;;;;25.58;40.55;97100.13;6254483;23;20020;-88
2023/07/17 10:27:02;;;;;;;4.57;2.75;;;;;;;25.59;38.76;97093.72;6254178;23;20529;-83
2023/07/17 10:29:31;;;;;;;3.70;2.53;;;;;;;25.57;38.75;97083.31;6255893;23;20016;-85
2023/07/17 10:32:00;;;;;;;4.03;2.97;;;;;;;25.63;38.47;97087.59;6255545;23;20042;-83
2023/07/17 10:34:50;;;;;;;6.25;3.35;;;;;;;25.74;38.52;97087.59;6255273;23;20096;-84
2023/07/17 10:37:40;;;;;;;6.47;2.75;;;;;;;25.75;38.67;97089.97;6247083;23;20016;-84
2023/07/17 10:40:27;;;;;;;5.07;3.33;;;;;;;25.70;38.21;97082.78;6256080;23;20043;-84
2023/07/17 10:43:15;;;;;;;4.55;3.25;;;;;;;25.75;37.81;97083.84;6254955;23;20016;-84
2023/07/17 10:45:46;;;;;;;6.47;3.33;;;;;;;25.77;38.24;97082.50;6254441;23;20039;-86
2023/07/17 10:48:18;;;;;;;4.72;3.50;;;;;;;25.83;36.94;97078.75;6254393;23;20354;-81
2023/07/17 10:50:53;;;;;;;;;;;;;;;25.90;38.04;97068.63;6254558;23;20051;-82
2023/07/17 10:53:26;;;;;;;4.90;3.13;;;;;;;26.01;37.51;97071.28;6258770;23;19915;-88
2023/07/17 10:55:55;;;;;;;4.07;3.25;;;;;;;26.07;36.76;97075.56;6258026;23;20420;-87
2023/07/17 10:58:23;;;;;;;5.65;3.30;;;;;;;26.11;37.08;97065.94;6258383;23;20049;-88
2023/07/17 11:00:52;;;;;;;4.93;3.72;;;;;;;26.21;36.59;97065.91;6258464;23;20020;-87
2023/07/17 11:03:22;;;;;;;7.03;3.38;;;;;;;26.30;36.38;97064.31;6262061;23;20020;-87
2023/07/17 11:05:55;;;;;;;5.10;3.30;;;;;;;26.37;36.40;97058.66;6257171;23;20022;-86
2023/07/17 11:08:27;;;;;;;4.28;3.00;;;;;;;26.44;35.61;97055.69;6257137;23;20026;-88
2023/07/17 11:10:57;;;;;;;5.63;3.75;;;;;;;26.46;35.72;97054.34;6258201;23;20020;-87
2023/07/17 11:13:31;;;;;;;7.97;3.88;;;;;;;26.55;36.14;97046.56;6257768;23;20016;-85
2023/07/17 11:16:06;;;;;;;5.63;3.38;;;;;;;26.63;35.51;97050.56;6257222;23;20035;-87
2023/07/17 11:18:42;;;;;;;5.68;3.42;;;;;;;26.68;35.14;97043.31;6256494;23;20026;-86
2023/07/17 11:21:10;;;;;;;7.25;3.53;;;;;;;26.72;34.69;97040.91;6257530;23;20016;-87
2023/07/17 11:23:47;;;;;;;6.55;3.60;;;;;;;26.77;35.38;97048.91;6257263;23;20063;-86
2023/07/17 11:26:17;;;;;;;6.72;3.30;;;;;;;26.79;35.84;97046.75;6257587;23;20020;-83
2023/07/17 11:28:49;;;;;;;4.30;3.28;;;;;;;26.86;34.45;97033.84;6256877;23;20027;-87
2023/07/17 11:31:18;;;;;;;5.30;3.15;;;;;;;26.94;34.14;97029.81;6257042;23;20020;-85
2023/07/17 11:33:52;;;;;;;6.70;3.42;;;;;;;26.97;34.62;97039.16;6257011;23;20067;-89
2023/07/17 11:36:19;;;;;;;4.28;3.22;;;;;;;27.02;34.41;97039.91;6258331;23;20016;-84
2023/07/17 11:38:49;;;;;;;6.80;4.00;;;;;;;27.09;33.65;97037.75;6256661;23;20024;-88
2023/07/17 11:41:18;;;;;;;5.88;3.47;;;;;;;27.11;33.57;97035.59;6256130;23;20397;-84
2023/07/17 11:43:57;;;;;;;5.00;3.35;;;;;;;27.13;33.27;97033.44;6258019;23;20034;-85
2023/07/17 11:46:26;;;;;;;6.32;3.30;;;;;;;27.08;33.22;97036.13;6255994;23;20017;-88
2023/07/17 11:48:54;;;;;;;4.85;2.80;;;;;;;27.04;33.32;97039.66;6255854;23;20347;-87
2023/07/17 11:51:26;;;;;;;5.05;3.13;;;;;;;27.02;34.33;97039.91;6256228;23;20446;-86
2023/07/17 11:53:56;;;;;;;4.53;3.13;;;;;;;27.01;34.71;97032.97;6256979;23;20035;-83
2023/07/17 11:56:35;;;;;;;7.68;3.70;;;;;;;27.02;33.70;97023.84;6256430;23;20031;-86